Time;durP1;ratioP1;P1;durP2;ratioP2;P2;SDS_P1;SDS_P2;PMS_P1;PMS_P2;Temp;Humidity;BMP_temperature;BMP_pressure;BME280_temperature;BME280_humidity;BME280_pressure;Samples;Min_cycle;Max_cycle;Signal;HPM_P1;HPM_P2
2021/07/29 00:01:58;;;;;;;1.90;1.30;;;26.30;55.60;;;;;;5022020;28;20150;-62
2021/07/29 00:04:24;;;;;;;1.38;1.10;;;26.30;55.60;;;;;;5023343;28;20416;-61
2021/07/29 00:06:50;;;;;;;1.65;1.40;;;26.30;55.60;;;;;;5019074;28;20109;-60
2021/07/29 00:09:15;;;;;;;1.73;1.30;;;26.30;55.60;;;;;;5018946;28;20036;-61
2021/07/29 00:11:41;;;;;;;1.65;1.20;;;26.30;55.60;;;;;;5005353;28;20481;-62
2021/07/29 00:14:06;;;;;;;1.92;1.40;;;26.30;55.60;;;;;;5014887;28;20037;-61
2021/07/29 00:16:41;;;;;;;1.58;1.20;;;26.20;55.60;;;;;;5025097;28;20052;-61
2021/07/29 00:19:08;;;;;;;1.38;1.10;;;26.20;55.60;;;;;;5027750;28;20074;-59
2021/07/29 00:21:35;;;;;;;1.45;1.20;;;26.20;55.60;;;;;;5013226;28;20033;-60
2021/07/29 00:24:01;;;;;;;1.73;1.30;;;26.20;55.60;;;;;;5018990;28;20088;-63
2021/07/29 00:26:28;;;;;;;1.92;1.38;;;26.20;55.60;;;;;;5022807;28;20429;-60
2021/07/29 00:28:53;;;;;;;1.88;1.35;;;26.20;55.60;;;;;;5021376;28;20187;-61
2021/07/29 00:31:19;;;;;;;1.52;1.20;;;26.20;55.60;;;;;;5015848;28;20152;-63
2021/07/29 00:33:45;;;;;;;2.00;1.30;;;26.20;55.70;;;;;;5020550;28;20819;-61
2021/07/29 00:36:21;;;;;;;1.25;1.10;;;26.20;55.60;;;;;;5024649;28;20037;-60
2021/07/29 00:38:46;;;;;;;1.80;1.20;;;26.20;55.60;;;;;;5022277;28;20025;-60
2021/07/29 00:41:13;;;;;;;1.42;1.17;;;26.20;55.60;;;;;;5016315;28;20060;-65
2021/07/29 00:43:39;;;;;;;1.83;1.30;;;26.20;55.60;;;;;;5020413;28;20130;-59
2021/07/29 00:46:05;;;;;;;1.45;1.20;;;26.20;55.60;;;;;;5016743;28;20121;-62
2021/07/29 00:48:31;;;;;;;1.50;1.20;;;26.20;55.70;;;;;;5012253;28;20030;-64
2021/07/29 00:50:57;;;;;;;1.40;1.20;;;26.20;55.70;;;;;;5027775;28;20025;-61
2021/07/29 00:53:22;;;;;;;1.73;1.35;;;26.20;55.70;;;;;;5009195;28;20047;-64
2021/07/29 00:55:49;;;;;;;1.95;1.30;;;26.20;55.70;;;;;;5015323;28;20119;-61
2021/07/29 00:58:15;;;;;;;1.42;1.17;;;26.20;55.70;;;;;;5007909;28;20317;-64
2021/07/29 01:00:41;;;;;;;1.50;1.20;;;26.10;55.60;;;;;;5021101;28;20043;-60
2021/07/29 01:03:06;;;;;;;1.92;1.30;;;26.10;55.60;;;;;;5008204;28;20088;-59
2021/07/29 01:05:32;;;;;;;1.50;1.20;;;26.10;55.60;;;;;;5017008;28;20501;-60
2021/07/29 01:07:58;;;;;;;1.40;1.20;;;26.10;55.60;;;;;;5024980;28;20101;-60
2021/07/29 01:10:23;;;;;;;1.60;1.20;;;26.10;55.60;;;;;;5026588;28;20048;-63
2021/07/29 01:12:49;;;;;;;1.38;1.13;;;26.10;55.60;;;;;;5016074;28;20105;-60
2021/07/29 01:15:15;;;;;;;1.80;1.40;;;26.10;55.60;;;;;;5028015;28;20029;-63
2021/07/29 01:17:40;;;;;;;1.48;1.23;;;26.10;55.60;;;;;;5014342;28;20129;-62
2021/07/29 01:20:07;;;;;;;1.70;1.40;;;26.10;55.60;;;;;;5014324;28;20026;-60
2021/07/29 01:22:34;;;;;;;1.65;1.30;;;26.10;56.20;;;;;;5010942;28;20051;-60
2021/07/29 01:25:00;;;;;;;1.23;1.10;;;26.10;55.70;;;;;;5026336;28;20048;-61
2021/07/29 01:27:30;;;;;;;1.50;1.10;;;26.10;55.70;;;;;;5020683;28;20025;-61
2021/07/29 01:29:59;;;;;;;;;;;26.10;55.60;;;;;;5029731;28;20021;-62
2021/07/29 01:32:25;;;;;;;1.52;1.25;;;26.10;55.70;;;;;;5026189;28;19916;-61
2021/07/29 01:34:51;;;;;;;1.42;1.13;;;26.10;55.60;;;;;;5014185;28;20473;-61
2021/07/29 01:37:17;;;;;;;1.50;1.15;;;26.10;55.70;;;;;;5024899;28;20057;-61
2021/07/29 01:39:43;;;;;;;1.50;1.10;;;26.10;55.70;;;;;;5020996;28;20034;-60
2021/07/29 01:42:08;;;;;;;1.50;1.20;;;26.10;55.70;;;;;;5021344;28;20444;-61
2021/07/29 01:44:34;;;;;;;1.48;1.23;;;26.10;55.70;;;;;;5022428;28;20052;-60
2021/07/29 01:46:59;;;;;;;1.25;1.00;;;26.10;55.70;;;;;;5024085;28;20068;-59
2021/07/29 01:49:25;;;;;;;1.65;1.30;;;26.00;55.60;;;;;;5031891;28;20032;-65
2021/07/29 01:51:50;;;;;;;1.40;1.02;;;26.00;55.70;;;;;;5010228;28;20576;-62
2021/07/29 01:54:17;;;;;;;1.40;1.10;;;26.00;55.60;;;;;;5020315;28;20067;-61
2021/07/29 01:56:45;;;;;;;1.38;1.17;;;26.00;55.70;;;;;;5022660;28;20025;-61
2021/07/29 01:59:11;;;;;;;1.90;1.10;;;26.00;55.60;;;;;;5020239;28;20384;-61
2021/07/29 02:01:37;;;;;;;1.58;1.20;;;26.00;55.70;;;;;;5013600;28;20038;-59
2021/07/29 02:04:03;;;;;;;1.52;1.10;;;26.00;55.60;;;;;;5020225;28;20026;-62
2021/07/29 02:06:29;;;;;;;1.33;1.10;;;26.00;55.70;;;;;;5016035;28;20064;-60
2021/07/29 02:08:55;;;;;;;1.40;1.10;;;26.00;55.70;;;;;;5016133;28;20423;-62
2021/07/29 02:11:21;;;;;;;1.67;1.20;;;26.00;55.70;;;;;;5015312;28;20030;-59
2021/07/29 02:13:46;;;;;;;1.63;1.30;;;26.00;55.70;;;;;;5020118;28;20603;-60
2021/07/29 02:16:13;;;;;;;1.67;1.23;;;26.00;55.70;;;;;;5024432;28;20025;-59
2021/07/29 02:18:39;;;;;;;1.60;1.23;;;26.00;55.70;;;;;;5025238;28;20057;-64
2021/07/29 02:21:10;;;;;;;1.58;1.20;;;26.00;55.70;;;;;;5028184;28;20099;-60
2021/07/29 02:23:37;;;;;;;1.58;1.17;;;26.00;55.70;;;;;;5024158;28;20087;-61
2021/07/29 02:26:03;;;;;;;1.17;0.98;;;26.00;55.70;;;;;;5023802;28;20040;-62
2021/07/29 02:28:28;;;;;;;1.50;1.17;;;26.00;55.70;;;;;;5023657;28;20029;-63
2021/07/29 02:30:55;;;;;;;1.88;1.30;;;26.00;55.70;;;;;;5020187;28;20103;-60
2021/07/29 02:33:21;;;;;;;1.48;1.17;;;25.90;55.60;;;;;;5023229;28;20072;-60
2021/07/29 02:35:50;;;;;;;1.55;1.15;;;25.90;55.60;;;;;;5016813;28;20025;-63
2021/07/29 02:38:16;;;;;;;1.65;1.27;;;25.90;55.60;;;;;;5013268;28;20086;-59
2021/07/29 02:40:43;;;;;;;1.75;1.30;;;25.90;55.60;;;;;;5025337;28;20472;-61
2021/07/29 02:43:09;;;;;;;1.33;1.10;;;25.90;55.60;;;;;;5016259;28;20536;-61
2021/07/29 02:45:35;;;;;;;1.42;1.10;;;25.90;55.70;;;;;;5025635;28;20096;-62
2021/07/29 02:48:00;;;;;;;1.55;1.10;;;25.90;55.70;;;;;;5023800;28;20163;-62
2021/07/29 02:50:26;;;;;;;1.45;1.20;;;25.90;56.20;;;;;;5030160;28;20365;-66
2021/07/29 02:52:51;;;;;;;1.60;1.30;;;25.90;55.70;;;;;;5020992;28;20029;-61
2021/07/29 02:55:17;;;;;;;1.48;1.10;;;25.90;55.70;;;;;;5014668;28;20059;-63
2021/07/29 02:57:42;;;;;;;1.50;1.20;;;25.90;55.70;;;;;;5022192;28;20025;-60
2021/07/29 03:00:09;;;;;;;1.30;1.02;;;25.90;55.70;;;;;;5025446;28;20033;-63
2021/07/29 03:02:34;;;;;;;1.83;1.23;;;25.90;55.70;;;;;;5016989;28;20030;-62
2021/07/29 03:05:00;;;;;;;1.50;1.17;;;25.90;55.70;;;;;;5020349;28;20040;-60
2021/07/29 03:07:26;;;;;;;1.15;1.00;;;25.90;55.70;;;;;;5017906;28;20033;-62
2021/07/29 03:09:53;;;;;;;1.63;1.10;;;25.90;55.70;;;;;;5016285;28;20414;-62
2021/07/29 03:12:18;;;;;;;1.40;1.13;;;25.90;55.70;;;;;;5012525;28;20025;-61
2021/07/29 03:14:46;;;;;;;1.30;1.10;;;25.90;55.70;;;;;;5014374;28;20087;-64
2021/07/29 03:17:12;;;;;;;1.50;1.13;;;25.90;55.70;;;;;;5018455;28;20030;-59
2021/07/29 03:19:37;;;;;;;1.50;1.20;;;25.90;55.70;;;;;;5022197;28;20105;-60
2021/07/29 03:22:03;;;;;;;1.63;1.20;;;25.80;55.60;;;;;;5023506;28;20033;-60
2021/07/29 03:24:29;;;;;;;1.13;1.00;;;25.80;55.60;;;;;;5017286;28;20192;-62
2021/07/29 03:26:54;;;;;;;1.10;1.00;;;25.90;55.70;;;;;;5020431;28;20026;-64
2021/07/29 03:29:20;;;;;;;1.25;1.13;;;25.90;55.70;;;;;;5017078;28;20029;-63
2021/07/29 03:31:46;;;;;;;1.38;1.10;;;25.80;55.70;;;;;;5018430;28;20488;-62
2021/07/29 03:34:12;;;;;;;1.48;1.13;;;25.90;55.70;;;;;;5016524;28;20045;-60
2021/07/29 03:36:37;;;;;;;1.52;1.17;;;25.80;55.70;;;;;;5011998;28;20060;-59
2021/07/29 03:39:05;;;;;;;1.90;1.23;;;25.80;55.70;;;;;;5008634;28;20033;-63
2021/07/29 03:41:31;;;;;;;1.45;1.25;;;25.80;55.70;;;;;;5011674;28;20029;-63
2021/07/29 03:43:57;;;;;;;1.38;1.00;;;25.90;55.70;;;;;;5023164;28;20026;-61
2021/07/29 03:46:22;;;;;;;1.23;1.08;;;25.80;55.70;;;;;;5024457;28;20037;-61
2021/07/29 03:48:48;;;;;;;1.58;1.20;;;25.80;55.70;;;;;;5014007;28;20041;-61
2021/07/29 03:51:13;;;;;;;1.20;1.00;;;25.80;55.70;;;;;;5011271;28;20029;-62
2021/07/29 03:53:39;;;;;;;1.30;1.10;;;25.80;55.70;;;;;;5007263;28;20025;-60
2021/07/29 03:56:07;;;;;;;1.23;1.02;;;25.80;55.70;;;;;;5025345;28;20036;-64
2021/07/29 03:58:35;;;;;;;2.38;1.30;;;25.80;55.70;;;;;;5015564;28;20029;-61
2021/07/29 04:01:01;;;;;;;1.60;1.20;;;25.80;55.70;;;;;;5022412;28;20050;-65
2021/07/29 04:03:27;;;;;;;1.63;1.10;;;25.80;55.70;;;;;;5021840;28;20094;-59
2021/07/29 04:05:52;;;;;;;1.45;1.17;;;25.80;55.70;;;;;;5016600;28;20101;-60
2021/07/29 04:08:18;;;;;;;1.38;1.10;;;25.80;55.70;;;;;;5024459;28;20037;-60
2021/07/29 04:10:43;;;;;;;1.40;1.10;;;25.70;55.60;;;;;;5017416;28;20159;-61
2021/07/29 04:13:09;;;;;;;1.48;1.10;;;25.80;55.70;;;;;;5022640;28;20457;-63
2021/07/29 04:15:35;;;;;;;1.67;1.15;;;25.70;55.60;;;;;;5040010;28;20052;-62
2021/07/29 04:18:00;;;;;;;1.35;1.10;;;25.80;55.70;;;;;;5023368;28;20144;-63
2021/07/29 04:20:26;;;;;;;1.67;1.13;;;25.80;55.70;;;;;;5021160;28;20436;-60
2021/07/29 04:22:51;;;;;;;1.58;1.10;;;25.70;55.60;;;;;;5024570;28;20052;-62
2021/07/29 04:25:17;;;;;;;1.45;1.15;;;25.70;55.60;;;;;;5017488;28;20037;-59
2021/07/29 04:27:43;;;;;;;1.70;1.20;;;25.70;55.60;;;;;;5006993;28;20026;-62
2021/07/29 04:30:08;;;;;;;1.80;1.25;;;25.70;55.60;;;;;;5009779;28;20063;-64
2021/07/29 04:32:37;;;;;;;1.60;1.10;;;25.70;55.60;;;;;;5014331;28;20030;-63
2021/07/29 04:35:04;;;;;;;3.63;1.58;;;25.70;55.50;;;;;;5022171;28;20033;-62
2021/07/29 04:37:30;;;;;;;4.47;1.70;;;25.70;54.00;;;;;;5017153;28;20033;-62
2021/07/29 04:39:56;;;;;;;3.92;1.42;;;25.70;52.40;;;;;;5019137;28;20030;-62
2021/07/29 04:42:21;;;;;;;5.50;2.00;;;25.70;52.50;;;;;;5018010;28;20041;-65
2021/07/29 04:44:47;;;;;;;6.75;1.98;;;25.60;52.00;;;;;;5024590;28;20025;-61
2021/07/29 04:47:16;;;;;;;3.42;1.90;;;25.60;52.00;;;;;;5017050;28;20044;-65
2021/07/29 04:49:41;;;;;;;5.68;2.05;;;25.50;51.60;;;;;;5034186;28;20623;-61
2021/07/29 04:52:07;;;;;;;6.10;2.00;;;25.50;51.50;;;;;;5023156;28;20116;-61
2021/07/29 04:54:33;;;;;;;4.05;2.03;;;25.50;51.20;;;;;;5012279;28;20062;-60
2021/07/29 04:56:58;;;;;;;4.47;2.28;;;25.40;51.50;;;;;;5023670;28;20034;-64
2021/07/29 04:59:25;;;;;;;4.63;2.20;;;25.40;51.30;;;;;;5029375;28;20044;-60
2021/07/29 05:01:50;;;;;;;5.43;2.20;;;25.40;51.30;;;;;;5024517;28;20038;-63
2021/07/29 05:04:16;;;;;;;6.18;2.40;;;25.40;51.30;;;;;;5027969;28;20055;-61
2021/07/29 05:06:42;;;;;;;4.38;2.50;;;25.40;51.30;;;;;;5026239;28;20029;-59
2021/07/29 05:09:08;;;;;;;4.45;2.65;;;25.30;51.40;;;;;;5028981;28;20385;-63
2021/07/29 05:11:34;;;;;;;4.75;2.88;;;25.30;51.50;;;;;;5017047;28;20033;-61
2021/07/29 05:13:59;;;;;;;4.15;2.40;;;25.30;51.50;;;;;;5015093;28;20034;-61
2021/07/29 05:16:25;;;;;;;4.03;2.30;;;25.30;51.60;;;;;;5009729;28;20469;-59
2021/07/29 05:18:50;;;;;;;3.35;2.08;;;25.20;51.70;;;;;;5021090;28;20043;-65
2021/07/29 05:21:16;;;;;;;4.93;2.28;;;25.20;51.80;;;;;;5027295;28;20444;-61
2021/07/29 05:23:42;;;;;;;3.75;2.00;;;25.20;52.40;;;;;;5016673;28;20041;-60
2021/07/29 05:26:16;;;;;;;4.30;2.25;;;25.20;52.10;;;;;;5013682;28;20033;-60
2021/07/29 05:28:42;;;;;;;3.80;2.15;;;25.10;52.20;;;;;;5024198;28;20123;-60
2021/07/29 05:31:09;;;;;;;4.68;1.90;;;25.10;52.30;;;;;;5022078;28;20080;-61
2021/07/29 05:33:35;;;;;;;2.97;1.90;;;25.10;52.40;;;;;;5021799;28;20025;-62
2021/07/29 05:36:01;;;;;;;3.75;1.90;;;25.10;52.60;;;;;;5009164;28;20073;-62
2021/07/29 05:38:26;;;;;;;2.92;1.85;;;25.10;52.70;;;;;;5015755;28;20441;-61
2021/07/29 05:40:57;;;;;;;3.55;2.03;;;25.10;52.90;;;;;;5013682;28;20679;-60
2021/07/29 05:43:22;;;;;;;3.03;2.00;;;25.10;53.00;;;;;;5017632;28;20033;-60
2021/07/29 05:45:48;;;;;;;3.08;1.95;;;25.00;53.20;;;;;;5019772;28;20481;-64
2021/07/29 05:48:14;;;;;;;4.95;2.35;;;25.00;53.40;;;;;;5024953;28;20056;-59
2021/07/29 05:50:39;;;;;;;3.30;2.20;;;25.00;53.60;;;;;;5020964;28;20037;-60
2021/07/29 05:53:05;;;;;;;3.22;2.50;;;25.00;54.00;;;;;;5021363;28;20148;-63
2021/07/29 05:55:30;;;;;;;5.35;2.60;;;24.90;53.80;;;;;;5023223;28;20033;-61
2021/07/29 05:58:00;;;;;;;3.55;2.40;;;24.90;53.90;;;;;;5025819;28;20026;-60
2021/07/29 06:00:25;;;;;;;;;;;24.90;54.00;;;;;;5025266;28;20041;-62
2021/07/29 06:02:51;;;;;;;4.13;2.50;;;24.90;54.60;;;;;;5016914;28;20264;-63
2021/07/29 06:05:16;;;;;;;3.80;2.50;;;24.80;55.10;;;;;;5010537;28;20125;-59
2021/07/29 06:07:42;;;;;;;3.65;2.30;;;24.70;55.10;;;;;;5012268;28;20136;-60
2021/07/29 06:10:08;;;;;;;5.55;2.85;;;24.70;54.90;;;;;;5017749;28;20409;-63
2021/07/29 06:12:34;;;;;;;4.07;2.50;;;24.80;55.20;;;;;;5019470;28;20084;-61
2021/07/29 06:15:00;;;;;;;5.28;3.00;;;24.80;54.90;;;;;;5018431;28;20161;-60
2021/07/29 06:17:37;;;;;;;4.18;2.60;;;24.70;55.00;;;;;;5023124;28;20021;-60
2021/07/29 06:20:07;;;;;;;5.07;2.80;;;24.80;55.20;;;;;;5024095;28;20314;-59
2021/07/29 06:22:33;;;;;;;4.15;2.63;;;24.70;55.30;;;;;;5015397;28;20061;-58
2021/07/29 06:24:59;;;;;;;4.90;2.40;;;24.70;55.30;;;;;;5010312;28;20507;-62
2021/07/29 06:27:26;;;;;;;4.43;2.42;;;24.80;55.40;;;;;;5026294;28;20036;-60
2021/07/29 06:29:51;;;;;;;4.05;2.67;;;24.80;55.20;;;;;;5025182;28;20517;-61
2021/07/29 06:32:17;;;;;;;3.85;2.45;;;24.90;55.50;;;;;;5019700;28;20149;-63
2021/07/29 06:34:42;;;;;;;5.75;2.70;;;24.80;55.70;;;;;;5022500;28;20338;-58
2021/07/29 06:37:08;;;;;;;6.40;2.70;;;24.90;55.90;;;;;;5025174;28;20113;-63
2021/07/29 06:39:34;;;;;;;3.92;2.53;;;24.80;56.20;;;;;;5025814;28;20033;-62
2021/07/29 06:42:00;;;;;;;3.78;2.50;;;24.90;56.10;;;;;;5020153;28;20097;-65
2021/07/29 06:44:26;;;;;;;5.05;2.35;;;24.80;56.40;;;;;;5024744;28;20112;-60
2021/07/29 06:46:51;;;;;;;4.13;2.40;;;24.80;56.80;;;;;;5020897;28;20025;-61
2021/07/29 06:49:17;;;;;;;4.47;2.70;;;24.80;56.70;;;;;;5026532;28;20030;-61
2021/07/29 06:51:43;;;;;;;3.88;2.38;;;24.80;57.30;;;;;;5022355;28;20832;-59
2021/07/29 06:54:08;;;;;;;4.05;2.75;;;24.70;57.20;;;;;;5023733;28;20037;-60
2021/07/29 06:56:34;;;;;;;3.70;2.80;;;24.60;57.40;;;;;;5025730;28;20097;-61
2021/07/29 06:58:59;;;;;;;4.50;2.70;;;24.60;57.90;;;;;;5022042;28;20492;-60
2021/07/29 07:01:25;;;;;;;4.70;2.50;;;24.70;57.50;;;;;;5030509;28;20793;-61
2021/07/29 07:03:51;;;;;;;3.83;2.25;;;24.60;58.10;;;;;;5014612;28;20108;-62
2021/07/29 07:06:17;;;;;;;5.45;2.90;;;24.70;58.00;;;;;;5025088;28;20052;-63
2021/07/29 07:08:43;;;;;;;3.20;2.40;;;24.70;58.40;;;;;;5017086;28;20108;-61
2021/07/29 07:11:18;;;;;;;3.85;2.60;;;24.70;58.50;;;;;;5023100;28;20472;-60
2021/07/29 07:13:45;;;;;;;3.75;2.63;;;24.70;58.10;;;;;;5023866;28;20029;-60
2021/07/29 07:16:12;;;;;;;3.20;2.30;;;24.70;58.30;;;;;;5024911;28;20057;-62
2021/07/29 07:18:39;;;;;;;4.50;2.60;;;24.70;58.70;;;;;;5014453;28;20512;-62
2021/07/29 07:21:06;;;;;;;3.67;2.55;;;24.70;58.60;;;;;;5018034;28;20152;-59
2021/07/29 07:23:32;;;;;;;4.32;2.80;;;24.60;58.40;;;;;;5021801;28;20124;-63
2021/07/29 07:25:57;;;;;;;3.67;2.25;;;24.60;58.70;;;;;;5008578;28;20556;-61
2021/07/29 07:28:23;;;;;;;2.90;2.10;;;24.60;58.60;;;;;;5010460;28;20101;-61
2021/07/29 07:30:48;;;;;;;3.03;2.35;;;24.70;58.70;;;;;;5016216;28;20037;-61
2021/07/29 07:33:14;;;;;;;3.63;2.53;;;24.70;58.30;;;;;;5018850;28;20072;-59
2021/07/29 07:35:40;;;;;;;3.33;2.45;;;24.70;57.90;;;;;;5012330;28;20101;-60
2021/07/29 07:38:05;;;;;;;3.33;2.30;;;24.70;57.40;;;;;;5014250;28;20095;-63
2021/07/29 07:40:31;;;;;;;3.60;2.53;;;24.70;57.60;;;;;;5017582;28;20044;-60
2021/07/29 07:42:57;;;;;;;3.97;2.60;;;24.70;57.40;;;;;;5023319;28;20065;-60
2021/07/29 07:45:23;;;;;;;3.88;2.75;;;24.80;58.20;;;;;;5021437;28;20414;-59
2021/07/29 07:47:49;;;;;;;3.38;2.50;;;24.70;57.40;;;;;;5010242;28;20052;-60
2021/07/29 07:50:14;;;;;;;4.63;3.17;;;24.70;57.10;;;;;;5017219;28;20109;-58
2021/07/29 07:52:40;;;;;;;4.10;2.30;;;24.70;57.20;;;;;;5021791;28;20044;-60
2021/07/29 07:55:06;;;;;;;4.55;2.63;;;24.70;57.50;;;;;;5024984;28;20107;-62
2021/07/29 07:57:31;;;;;;;3.72;2.33;;;24.80;56.60;;;;;;5021688;28;20033;-63
2021/07/29 07:59:58;;;;;;;3.83;2.13;;;24.70;56.50;;;;;;5021913;28;20029;-60
2021/07/29 08:02:25;;;;;;;3.92;2.08;;;24.80;56.60;;;;;;5014895;28;20045;-59
2021/07/29 08:04:51;;;;;;;4.53;2.17;;;24.80;56.30;;;;;;5018427;28;20022;-58
2021/07/29 08:07:17;;;;;;;2.95;1.95;;;24.80;55.90;;;;;;5012824;28;22289;-59
2021/07/29 08:09:43;;;;;;;2.80;2.08;;;24.90;55.60;;;;;;5007748;28;20018;-59
2021/07/29 08:12:09;;;;;;;9.50;2.40;;;24.90;54.90;;;;;;5016682;28;20042;-61
2021/07/29 08:14:35;;;;;;;3.83;2.50;;;25.00;54.10;;;;;;5035507;28;20034;-61
2021/07/29 08:17:02;;;;;;;4.35;2.38;;;24.80;54.10;;;;;;5024960;28;20032;-63
2021/07/29 08:19:28;;;;;;;3.22;2.15;;;24.80;54.50;;;;;;5020650;28;20029;-61
2021/07/29 08:21:54;;;;;;;3.42;2.10;;;24.90;55.00;;;;;;5017732;28;20112;-61
2021/07/29 08:24:19;;;;;;;2.85;1.75;;;24.90;54.90;;;;;;5021223;28;20052;-61
2021/07/29 08:26:45;;;;;;;2.75;2.00;;;25.00;55.10;;;;;;5022855;28;20519;-61
2021/07/29 08:29:11;;;;;;;3.83;2.00;;;25.00;54.80;;;;;;5009558;28;20087;-60
2021/07/29 08:31:36;;;;;;;3.05;1.88;;;25.10;54.70;;;;;;5005162;28;20041;-62
2021/07/29 08:34:02;;;;;;;2.30;1.80;;;25.10;54.50;;;;;;5016776;28;20099;-62
2021/07/29 08:36:28;;;;;;;2.95;1.67;;;25.20;54.20;;;;;;5015847;28;20037;-61
2021/07/29 08:38:53;;;;;;;3.13;2.10;;;25.20;54.00;;;;;;5020551;28;20026;-61
2021/07/29 08:41:19;;;;;;;3.05;1.92;;;25.20;54.00;;;;;;5012270;28;20113;-61
2021/07/29 08:43:48;;;;;;;2.75;1.73;;;25.30;54.00;;;;;;5022334;28;20225;-58
2021/07/29 08:46:18;;;;;;;2.72;1.88;;;25.30;54.00;;;;;;5023486;28;20044;-61
2021/07/29 08:48:49;;;;;;;2.42;1.70;;;25.30;53.80;;;;;;5022571;28;20289;-59
2021/07/29 08:51:22;;;;;;;2.40;1.70;;;25.30;53.70;;;;;;5019565;28;20040;-59
2021/07/29 08:53:48;;;;;;;2.67;1.70;;;25.30;53.50;;;;;;5012136;28;20029;-61
2021/07/29 08:56:14;;;;;;;2.65;1.80;;;25.30;53.90;;;;;;5021161;28;20033;-61
2021/07/29 08:58:43;;;;;;;2.33;1.80;;;25.30;53.50;;;;;;5015097;28;20432;-60
2021/07/29 09:01:11;;;;;;;2.25;1.67;;;25.30;53.60;;;;;;5022650;28;20774;-61
2021/07/29 09:03:37;;;;;;;2.10;1.70;;;25.30;53.60;;;;;;5019258;28;20049;-63
2021/07/29 09:06:08;;;;;;;3.03;1.83;;;25.30;53.30;;;;;;5016893;28;20079;-65
2021/07/29 09:08:43;;;;;;;2.72;1.90;;;25.30;53.00;;;;;;5020542;28;20473;-60
2021/07/29 09:11:35;;;;;;;2.30;1.70;;;25.40;53.10;;;;;;5011293;28;20033;-60
2021/07/29 09:14:06;;;;;;;2.67;1.80;;;25.40;53.10;;;;;;5006150;28;20029;-61
2021/07/29 09:16:38;;;;;;;3.30;1.80;;;25.40;53.00;;;;;;5019223;28;20077;-64
2021/07/29 09:19:05;;;;;;;2.40;1.60;;;25.40;53.10;;;;;;5017486;28;20231;-63
2021/07/29 09:21:31;;;;;;;2.60;1.95;;;25.50;53.10;;;;;;5016102;28;20038;-60
2021/07/29 09:24:12;;;;;;;2.35;1.60;;;25.50;53.10;;;;;;5012874;28;20071;-63
2021/07/29 09:26:57;;;;;;;2.67;1.85;;;25.50;53.10;;;;;;5009808;28;20033;-60
2021/07/29 09:29:24;;;;;;;2.92;1.70;;;25.50;53.00;;;;;;5017606;28;20032;-59
2021/07/29 09:32:06;;;;;;;3.88;2.35;;;25.60;53.00;;;;;;5018804;28;20488;-63
2021/07/29 09:34:47;;;;;;;2.60;1.75;;;25.60;52.80;;;;;;5015987;28;20060;-62
2021/07/29 09:37:14;;;;;;;2.88;1.70;;;25.60;52.80;;;;;;5022780;28;20376;-62
2021/07/29 09:39:40;;;;;;;3.08;2.00;;;25.70;52.80;;;;;;5022453;28;20040;-61
2021/07/29 09:42:14;;;;;;;2.53;1.88;;;25.70;52.80;;;;;;5012026;28;20034;-64
2021/07/29 09:44:42;;;;;;;2.60;2.00;;;25.70;52.80;;;;;;5020409;28;20041;-59
2021/07/29 09:47:07;;;;;;;2.40;1.80;;;25.70;52.70;;;;;;5026226;28;20079;-60
2021/07/29 09:49:34;;;;;;;3.08;1.98;;;25.70;52.60;;;;;;5022600;28;20030;-60
2021/07/29 09:52:02;;;;;;;2.30;1.90;;;25.70;52.50;;;;;;5019173;28;20041;-63
2021/07/29 09:54:28;;;;;;;3.28;2.08;;;25.80;52.50;;;;;;5024027;28;20060;-64
2021/07/29 09:56:54;;;;;;;2.60;2.00;;;25.80;52.50;;;;;;5014574;28;20480;-64
2021/07/29 09:59:19;;;;;;;2.58;1.77;;;25.80;52.30;;;;;;5014049;28;20033;-62
2021/07/29 10:01:47;;;;;;;2.70;1.83;;;25.80;52.30;;;;;;5012270;28;20041;-62
2021/07/29 10:04:13;;;;;;;2.55;1.92;;;25.80;52.30;;;;;;5020829;28;20885;-62
2021/07/29 10:06:41;;;;;;;2.53;1.88;;;25.80;52.40;;;;;;5019377;28;20029;-61
2021/07/29 10:09:12;;;;;;;3.10;2.00;;;25.90;52.40;;;;;;5018941;28;20028;-61
2021/07/29 10:11:42;;;;;;;2.90;1.60;;;25.90;52.30;;;;;;5016247;28;20121;-62
2021/07/29 10:14:10;;;;;;;2.35;1.70;;;25.90;52.40;;;;;;5006920;28;20082;-64
2021/07/29 10:16:50;;;;;;;2.05;1.52;;;25.90;52.40;;;;;;5016183;28;20026;-61
2021/07/29 10:19:17;;;;;;;2.35;1.67;;;25.90;52.50;;;;;;5019080;28;20412;-62
2021/07/29 10:21:44;;;;;;;3.05;1.92;;;25.90;52.40;;;;;;5018199;28;20092;-62
2021/07/29 10:24:11;;;;;;;2.92;1.80;;;26.00;52.40;;;;;;5022005;28;20053;-64
2021/07/29 10:26:58;;;;;;;2.80;2.00;;;26.00;52.30;;;;;;5020387;28;20113;-65
2021/07/29 10:29:27;;;;;;;3.25;1.83;;;26.00;52.10;;;;;;5019989;28;20033;-63
2021/07/29 10:31:59;;;;;;;2.40;1.70;;;26.00;52.00;;;;;;5014673;28;20511;-64
2021/07/29 10:34:32;;;;;;;2.60;1.95;;;26.00;52.20;;;;;;5023313;28;20041;-62
2021/07/29 10:37:05;;;;;;;2.40;1.63;;;26.00;52.30;;;;;;5023147;28;20037;-62
2021/07/29 10:39:52;;;;;;;2.50;1.75;;;26.00;52.20;;;;;;5016427;28;20029;-64
2021/07/29 10:42:27;;;;;;;2.67;1.90;;;26.10;52.30;;;;;;5013052;28;20045;-64
2021/07/29 10:44:53;;;;;;;2.50;1.98;;;26.10;52.20;;;;;;5019375;28;20422;-64
2021/07/29 10:47:36;;;;;;;3.28;1.88;;;26.20;52.20;;;;;;5011917;28;20029;-62
2021/07/29 10:50:02;;;;;;;2.45;1.88;;;26.20;52.10;;;;;;5013963;28;20030;-62
2021/07/29 10:52:29;;;;;;;2.97;2.10;;;26.20;52.00;;;;;;5007034;28;20358;-61
2021/07/29 10:54:56;;;;;;;2.92;1.92;;;26.20;52.00;;;;;;5019556;28;20069;-62
2021/07/29 10:57:23;;;;;;;2.70;2.00;;;26.20;52.10;;;;;;5019075;28;20081;-63
2021/07/29 10:59:52;;;;;;;2.65;2.10;;;26.20;52.00;;;;;;5017797;28;20033;-60
2021/07/29 11:02:37;;;;;;;2.65;1.85;;;26.20;51.90;;;;;;5011745;28;20133;-66
2021/07/29 11:05:07;;;;;;;2.70;1.92;;;26.20;51.90;;;;;;5022453;28;20457;-61
2021/07/29 11:07:32;;;;;;;2.90;1.95;;;26.20;51.90;;;;;;5012853;28;20135;-63
2021/07/29 11:10:09;;;;;;;3.25;2.00;;;26.20;51.90;;;;;;5023341;28;20116;-61
2021/07/29 11:12:35;;;;;;;2.88;1.83;;;26.30;52.00;;;;;;5024937;28;20033;-65
2021/07/29 11:15:04;;;;;;;3.20;1.88;;;26.30;52.00;;;;;;5027131;28;20354;-61
2021/07/29 11:17:30;;;;;;;3.03;2.05;;;26.30;52.00;;;;;;5018671;28;20091;-62
2021/07/29 11:19:56;;;;;;;2.72;1.80;;;26.30;51.90;;;;;;5026587;28;20042;-62
2021/07/29 11:22:21;;;;;;;2.90;1.85;;;26.30;51.90;;;;;;5012744;28;20033;-65
2021/07/29 11:24:47;;;;;;;2.38;1.85;;;26.30;51.90;;;;;;5017784;28;20033;-66
2021/07/29 11:27:13;;;;;;;3.33;2.20;;;26.30;51.90;;;;;;5019268;28;20082;-63
2021/07/29 11:30:12;;;;;;;2.35;1.95;;;26.30;51.90;;;;;;5024440;28;20028;-62
2021/07/29 11:32:39;;;;;;;2.50;1.90;;;26.40;51.90;;;;;;4987361;28;20160;-64
2021/07/29 11:35:06;;;;;;;2.92;1.92;;;26.40;52.00;;;;;;5015437;28;20121;-66
2021/07/29 11:37:40;;;;;;;2.65;1.83;;;26.40;52.00;;;;;;5017107;28;20151;-62
2021/07/29 11:40:08;;;;;;;2.90;1.90;;;26.40;52.00;;;;;;5027225;28;20460;-62
2021/07/29 11:42:38;;;;;;;2.38;1.80;;;26.40;51.90;;;;;;5021805;28;20172;-62
2021/07/29 11:45:06;;;;;;;3.03;2.25;;;26.50;52.00;;;;;;5025441;28;20457;-64
2021/07/29 11:47:40;;;;;;;2.50;1.80;;;26.50;52.00;;;;;;5018696;28;20030;-63
2021/07/29 11:50:06;;;;;;;2.50;1.80;;;26.50;52.00;;;;;;5006460;28;20030;-63
2021/07/29 11:52:32;;;;;;;2.10;1.65;;;26.50;52.00;;;;;;5007939;28;20723;-61
2021/07/29 11:55:08;;;;;;;2.67;1.90;;;26.50;52.00;;;;;;5018726;28;20151;-62
2021/07/29 11:57:34;;;;;;;2.80;2.00;;;26.50;51.90;;;;;;5015762;28;20120;-64
2021/07/29 12:00:00;;;;;;;3.42;2.15;;;26.50;51.90;;;;;;5015636;28;20140;-63
2021/07/29 12:02:25;;;;;;;2.67;2.10;;;26.50;51.80;;;;;;5006176;28;20060;-62
2021/07/29 12:04:51;;;;;;;2.75;1.85;;;26.50;51.80;;;;;;5012275;28;20029;-61
2021/07/29 12:07:17;;;;;;;2.92;1.90;;;26.60;51.90;;;;;;5006552;28;20048;-66
2021/07/29 12:09:45;;;;;;;2.63;1.73;;;26.60;51.90;;;;;;5016181;28;20056;-62
2021/07/29 12:12:11;;;;;;;2.25;1.83;;;26.60;51.90;;;;;;5009825;28;20037;-63
2021/07/29 12:14:38;;;;;;;2.63;1.80;;;26.60;51.80;;;;;;5019208;28;20033;-64
2021/07/29 12:17:04;;;;;;;2.67;1.95;;;26.60;51.80;;;;;;5016136;28;20041;-62
2021/07/29 12:19:30;;;;;;;2.28;1.65;;;26.70;51.90;;;;;;5017330;28;20432;-63
2021/07/29 12:21:56;;;;;;;2.38;1.70;;;26.60;51.80;;;;;;5016427;28;20136;-61
2021/07/29 12:24:22;;;;;;;2.58;1.75;;;26.60;51.90;;;;;;5014963;28;20116;-63
2021/07/29 12:27:08;;;;;;;2.22;1.80;;;26.60;52.10;;;;;;5017774;28;20026;-65
2021/07/29 12:29:39;;;;;;;2.30;1.85;;;26.70;52.00;;;;;;5015855;28;20029;-62
2021/07/29 12:32:15;;;;;;;2.15;1.70;;;26.70;52.00;;;;;;5011584;28;20053;-66
2021/07/29 12:34:41;;;;;;;2.95;1.80;;;26.70;51.90;;;;;;5011623;28;20630;-64
2021/07/29 12:37:07;;;;;;;2.60;1.98;;;26.70;51.90;;;;;;5019221;28;20041;-61
2021/07/29 12:39:33;;;;;;;3.05;1.70;;;26.70;51.90;;;;;;5019324;28;20112;-65
2021/07/29 12:41:59;;;;;;;2.60;1.88;;;26.70;51.90;;;;;;5014975;28;20552;-66
2021/07/29 12:44:25;;;;;;;2.40;1.90;;;26.70;51.80;;;;;;5018048;28;20041;-63
2021/07/29 12:47:10;;;;;;;2.10;1.60;;;26.70;51.90;;;;;;5001867;28;20433;-67
2021/07/29 12:49:39;;;;;;;3.08;1.90;;;26.70;51.90;;;;;;5005397;28;20342;-65